sensor_id;sensor_type;location;lat;lon;timestamp;pressure;altitude;pressure_sealevel;temperature;humidity
45040;BME280;30778;53.574;7.770;2023-05-19T00:01:26;102910.06;;;6.80;54.29
45040;BME280;30778;53.574;7.770;2023-05-19T00:03:55;102909.13;;;6.75;54.67
45040;BME280;30778;53.574;7.770;2023-05-19T00:06:24;102909.19;;;6.81;54.42
45040;BME280;30778;53.574;7.770;2023-05-19T00:08:55;102903.97;;;6.79;54.74
45040;BME280;30778;53.574;7.770;2023-05-19T00:11:22;102903.09;;;6.77;54.60
45040;BME280;30778;53.574;7.770;2023-05-19T00:13:48;102904.78;;;6.72;54.36
45040;BME280;30778;53.574;7.770;2023-05-19T00:16:15;102902.09;;;6.61;54.36
45040;BME280;30778;53.574;7.770;2023-05-19T00:18:41;102907.19;;;6.49;54.37
45040;BME280;30778;53.574;7.770;2023-05-19T00:21:07;102901.91;;;6.43;54.43
45040;BME280;30778;53.574;7.770;2023-05-19T00:23:33;102906.09;;;6.30;54.73
45040;BME280;30778;53.574;7.770;2023-05-19T00:25:58;102894.94;;;6.36;54.73
45040;BME280;30778;53.574;7.770;2023-05-19T00:28:24;102898.44;;;6.41;54.33
45040;BME280;30778;53.574;7.770;2023-05-19T00:30:51;102895.81;;;6.39;54.34
45040;BME280;30778;53.574;7.770;2023-05-19T00:33:16;102903.59;;;6.39;54.37
45040;BME280;30778;53.574;7.770;2023-05-19T00:35:41;102899.38;;;6.47;54.23
45040;BME280;30778;53.574;7.770;2023-05-19T00:38:09;102900.19;;;6.43;54.44
45040;BME280;30778;53.574;7.770;2023-05-19T00:40:35;102895.03;;;6.46;54.26
45040;BME280;30778;53.574;7.770;2023-05-19T00:43:01;102887.22;;;6.42;53.95
45040;BME280;30778;53.574;7.770;2023-05-19T00:45:27;102896.50;;;6.26;54.42
45040;BME280;30778;53.574;7.770;2023-05-19T00:47:53;102898.38;;;6.36;54.63
45040;BME280;30778;53.574;7.770;2023-05-19T00:50:19;102881.06;;;6.37;54.78
45040;BME280;30778;53.574;7.770;2023-05-19T00:52:44;102877.59;;;6.35;54.23
45040;BME280;30778;53.574;7.770;2023-05-19T00:55:10;102881.03;;;6.32;54.15
45040;BME280;30778;53.574;7.770;2023-05-19T00:57:36;102877.47;;;6.24;54.35
45040;BME280;30778;53.574;7.770;2023-05-19T01:00:03;102877.44;;;6.22;55.04
45040;BME280;30778;53.574;7.770;2023-05-19T01:02:28;102878.44;;;6.32;54.77
45040;BME280;30778;53.574;7.770;2023-05-19T01:04:55;102872.34;;;6.28;54.87
45040;BME280;30778;53.574;7.770;2023-05-19T01:07:21;102869.81;;;6.36;54.42
45040;BME280;30778;53.574;7.770;2023-05-19T01:09:48;102868.91;;;6.33;54.73
45040;BME280;30778;53.574;7.770;2023-05-19T01:12:14;102859.38;;;6.32;54.35
45040;BME280;30778;53.574;7.770;2023-05-19T01:14:41;102853.19;;;6.20;54.08
45040;BME280;30778;53.574;7.770;2023-05-19T01:30:47;102853.75;;;5.92;54.53
45040;BME280;30778;53.574;7.770;2023-05-19T01:33:16;102864.88;;;5.83;54.59
45040;BME280;30778;53.574;7.770;2023-05-19T01:35:42;102858.81;;;5.81;54.72
45040;BME280;30778;53.574;7.770;2023-05-19T01:38:10;102861.31;;;5.75;54.52
45040;BME280;30778;53.574;7.770;2023-05-19T01:40:39;102857.88;;;5.73;54.57
45040;BME280;30778;53.574;7.770;2023-05-19T01:43:09;102863.19;;;5.85;54.16
45040;BME280;30778;53.574;7.770;2023-05-19T01:45:37;102855.41;;;5.88;54.38
45040;BME280;30778;53.574;7.770;2023-05-19T01:48:04;102849.44;;;5.94;54.09
45040;BME280;30778;53.574;7.770;2023-05-19T01:50:31;102851.13;;;5.90;54.02
45040;BME280;30778;53.574;7.770;2023-05-19T01:53:00;102850.28;;;5.91;54.00
45040;BME280;30778;53.574;7.770;2023-05-19T01:55:26;102853.78;;;5.93;53.98
45040;BME280;30778;53.574;7.770;2023-05-19T02:00:55;102851.13;;;5.88;54.23
45040;BME280;30778;53.574;7.770;2023-05-19T02:03:32;102853.69;;;5.87;54.26
45040;BME280;30778;53.574;7.770;2023-05-19T02:11:36;102861.34;;;5.76;53.99
45040;BME280;30778;53.574;7.770;2023-05-19T02:14:08;102856.97;;;5.71;53.99
45040;BME280;30778;53.574;7.770;2023-05-19T02:16:38;102852.53;;;5.62;54.52
45040;BME280;30778;53.574;7.770;2023-05-19T02:19:05;102854.34;;;5.69;54.59
45040;BME280;30778;53.574;7.770;2023-05-19T02:21:32;102851.78;;;5.71;54.18
45040;BME280;30778;53.574;7.770;2023-05-19T02:23:57;102852.59;;;5.68;54.29
45040;BME280;30778;53.574;7.770;2023-05-19T02:26:23;102843.00;;;5.59;54.46
45040;BME280;30778;53.574;7.770;2023-05-19T02:28:48;102846.50;;;5.64;54.19
45040;BME280;30778;53.574;7.770;2023-05-19T02:31:14;102847.41;;;5.68;53.98
45040;BME280;30778;53.574;7.770;2023-05-19T02:33:39;102844.00;;;5.71;54.50
45040;BME280;30778;53.574;7.770;2023-05-19T02:36:07;102831.75;;;5.60;54.66
45040;BME280;30778;53.574;7.770;2023-05-19T02:38:33;102843.84;;;5.58;54.57
45040;BME280;30778;53.574;7.770;2023-05-19T02:40:58;102839.56;;;5.63;54.65
45040;BME280;30778;53.574;7.770;2023-05-19T02:43:24;102833.56;;;5.67;54.69
45040;BME280;30778;53.574;7.770;2023-05-19T02:45:50;102832.72;;;5.69;54.27
45040;BME280;30778;53.574;7.770;2023-05-19T02:48:15;102833.56;;;5.66;53.90
45040;BME280;30778;53.574;7.770;2023-05-19T02:50:42;102830.94;;;5.61;54.38
45040;BME280;30778;53.574;7.770;2023-05-19T02:53:08;102826.53;;;5.57;55.01
45040;BME280;30778;53.574;7.770;2023-05-19T02:55:33;102836.03;;;5.55;55.63
45040;BME280;30778;53.574;7.770;2023-05-19T02:57:59;102827.47;;;5.62;55.26
45040;BME280;30778;53.574;7.770;2023-05-19T03:00:24;102832.78;;;5.75;55.24
45040;BME280;30778;53.574;7.770;2023-05-19T03:02:50;102837.91;;;5.67;54.98
45040;BME280;30778;53.574;7.770;2023-05-19T03:05:17;102834.47;;;5.70;55.30
45040;BME280;30778;53.574;7.770;2023-05-19T03:07:44;102836.25;;;5.74;54.91
45040;BME280;30778;53.574;7.770;2023-05-19T03:10:09;102842.28;;;5.71;55.16
45040;BME280;30778;53.574;7.770;2023-05-19T03:12:35;102841.41;;;5.71;55.02
45040;BME280;30778;53.574;7.770;2023-05-19T03:15:00;102847.31;;;5.60;54.89
45040;BME280;30778;53.574;7.770;2023-05-19T03:17:26;102846.38;;;5.54;55.89
45040;BME280;30778;53.574;7.770;2023-05-19T03:19:57;102844.75;;;5.63;55.71
45040;BME280;30778;53.574;7.770;2023-05-19T03:22:23;102842.22;;;5.66;55.56
45040;BME280;30778;53.574;7.770;2023-05-19T03:24:48;102843.91;;;5.63;55.23
45040;BME280;30778;53.574;7.770;2023-05-19T03:27:15;102845.53;;;5.56;54.99
45040;BME280;30778;53.574;7.770;2023-05-19T03:29:43;102845.47;;;5.52;55.07
45040;BME280;30778;53.574;7.770;2023-05-19T03:32:09;102846.34;;;5.52;55.07
45040;BME280;30778;53.574;7.770;2023-05-19T03:34:35;102845.34;;;5.39;55.35
45040;BME280;30778;53.574;7.770;2023-05-19T03:37:03;102841.72;;;5.28;55.24
45040;BME280;30778;53.574;7.770;2023-05-19T03:39:29;102840.81;;;5.24;55.83
45040;BME280;30778;53.574;7.770;2023-05-19T03:41:54;102844.19;;;5.20;55.66
45040;BME280;30778;53.574;7.770;2023-05-19T03:44:20;102842.41;;;5.16;55.79
45040;BME280;30778;53.574;7.770;2023-05-19T03:46:46;102845.97;;;5.23;55.96
45040;BME280;30778;53.574;7.770;2023-05-19T03:49:28;102849.50;;;5.30;55.69
45040;BME280;30778;53.574;7.770;2023-05-19T03:52:26;102840.91;;;5.31;55.93
45040;BME280;30778;53.574;7.770;2023-05-19T03:55:03;102845.34;;;5.41;55.81
45040;BME280;30778;53.574;7.770;2023-05-19T03:57:29;102848.81;;;5.41;55.72
45040;BME280;30778;53.574;7.770;2023-05-19T03:59:54;102842.84;;;5.47;55.80
45040;BME280;30778;53.574;7.770;2023-05-19T04:02:20;102838.63;;;5.55;55.36
45040;BME280;30778;53.574;7.770;2023-05-19T04:04:47;102849.19;;;5.72;55.25
45040;BME280;30778;53.574;7.770;2023-05-19T04:07:12;102838.03;;;5.78;54.79
45040;BME280;30778;53.574;7.770;2023-05-19T04:09:38;102844.13;;;5.83;54.97
45040;BME280;30778;53.574;7.770;2023-05-19T04:12:03;102841.69;;;5.95;54.95
45040;BME280;30778;53.574;7.770;2023-05-19T04:14:29;102850.38;;;6.00;54.77
45040;BME280;30778;53.574;7.770;2023-05-19T04:16:55;102844.44;;;6.11;54.58
45040;BME280;30778;53.574;7.770;2023-05-19T04:19:20;102854.03;;;6.18;54.28
45040;BME280;30778;53.574;7.770;2023-05-19T04:21:46;102850.63;;;6.25;54.38
45040;BME280;30778;53.574;7.770;2023-05-19T04:24:11;102845.44;;;6.25;53.77
45040;BME280;30778;53.574;7.770;2023-05-19T04:26:37;102846.31;;;6.25;54.08
45040;BME280;30778;53.574;7.770;2023-05-19T04:29:08;102849.09;;;6.42;53.71
45040;BME280;30778;53.574;7.770;2023-05-19T04:31:35;102852.66;;;6.54;52.93
45040;BME280;30778;53.574;7.770;2023-05-19T04:34:03;102846.56;;;6.48;53.32
45040;BME280;30778;53.574;7.770;2023-05-19T04:36:30;102850.00;;;6.47;53.27
45040;BME280;30778;53.574;7.770;2023-05-19T04:38:58;102856.94;;;6.47;52.85
45040;BME280;30778;53.574;7.770;2023-05-19T04:41:29;102848.28;;;6.46;52.42
45040;BME280;30778;53.574;7.770;2023-05-19T04:43:55;102847.47;;;6.57;51.72
45040;BME280;30778;53.574;7.770;2023-05-19T04:46:22;102848.47;;;6.69;51.50
45040;BME280;30778;53.574;7.770;2023-05-19T04:48:51;102849.44;;;6.82;50.97
45040;BME280;30778;53.574;7.770;2023-05-19T04:51:19;102859.09;;;7.00;49.97
45040;BME280;30778;53.574;7.770;2023-05-19T04:53:45;102853.19;;;7.30;49.41
45040;BME280;30778;53.574;7.770;2023-05-19T04:56:12;102859.50;;;7.74;48.80
45040;BME280;30778;53.574;7.770;2023-05-19T04:58:40;102867.41;;;8.25;47.57
45040;BME280;30778;53.574;7.770;2023-05-19T05:01:06;102870.06;;;8.94;46.02
45040;BME280;30778;53.574;7.770;2023-05-19T05:03:34;102867.28;;;9.66;44.61
45040;BME280;30778;53.574;7.770;2023-05-19T05:05:59;102865.59;;;9.53;42.83
45040;BME280;30778;53.574;7.770;2023-05-19T05:08:25;102873.44;;;9.53;43.54
45040;BME280;30778;53.574;7.770;2023-05-19T05:10:52;102872.53;;;9.62;43.42
45040;BME280;30778;53.574;7.770;2023-05-19T05:13:21;102859.44;;;10.94;40.62
45040;BME280;30778;53.574;7.770;2023-05-19T05:15:47;102861.25;;;12.32;37.38
45040;BME280;30778;53.574;7.770;2023-05-19T05:18:14;102866.38;;;13.37;36.13
45040;BME280;30778;53.574;7.770;2023-05-19T05:20:41;102845.69;;;14.42;34.68
45040;BME280;30778;53.574;7.770;2023-05-19T05:23:09;102852.38;;;15.19;31.54
45040;BME280;30778;53.574;7.770;2023-05-19T05:25:43;102846.16;;;16.37;30.63
45040;BME280;30778;53.574;7.770;2023-05-19T05:28:09;102841.91;;;16.60;30.30
45040;BME280;30778;53.574;7.770;2023-05-19T05:30:38;102842.69;;;16.89;29.92
45040;BME280;30778;53.574;7.770;2023-05-19T05:33:06;102846.25;;;16.88;28.14
45040;BME280;30778;53.574;7.770;2023-05-19T05:35:35;102844.88;;;17.24;27.37
45040;BME280;30778;53.574;7.770;2023-05-19T05:38:02;102842.19;;;17.95;26.87
45040;BME280;30778;53.574;7.770;2023-05-19T05:40:28;102831.38;;;18.23;24.71
45040;BME280;30778;53.574;7.770;2023-05-19T05:42:53;102838.09;;;18.53;24.82
45040;BME280;30778;53.574;7.770;2023-05-19T05:45:21;102836.25;;;17.90;24.41
45040;BME280;30778;53.574;7.770;2023-05-19T05:47:48;102844.81;;;19.01;24.26
45040;BME280;30778;53.574;7.770;2023-05-19T05:50:17;102833.09;;;19.25;22.65
45040;BME280;30778;53.574;7.770;2023-05-19T05:52:47;102837.56;;;19.82;22.37
45040;BME280;30778;53.574;7.770;2023-05-19T05:55:14;102834.22;;;20.49;22.21
45040;BME280;30778;53.574;7.770;2023-05-19T05:57:41;102831.69;;;19.37;21.35
45040;BME280;30778;53.574;7.770;2023-05-19T06:00:08;102832.94;;;20.04;21.08
45040;BME280;30778;53.574;7.770;2023-05-19T06:02:44;102829.38;;;20.40;19.70
45040;BME280;30778;53.574;7.770;2023-05-19T06:05:14;102833.38;;;21.00;19.68
45040;BME280;30778;53.574;7.770;2023-05-19T06:07:41;102827.34;;;21.45;19.30
45040;BME280;30778;53.574;7.770;2023-05-19T06:10:09;102826.06;;;21.68;18.98
45040;BME280;30778;53.574;7.770;2023-05-19T06:12:35;102841.44;;;21.63;19.09
45040;BME280;30778;53.574;7.770;2023-05-19T06:15:05;102830.00;;;21.93;18.18
45040;BME280;30778;53.574;7.770;2023-05-19T06:17:53;102832.66;;;22.39;17.78
45040;BME280;30778;53.574;7.770;2023-05-19T06:20:19;102834.78;;;22.02;17.95
45040;BME280;30778;53.574;7.770;2023-05-19T06:22:45;102835.94;;;22.58;16.72
45040;BME280;30778;53.574;7.770;2023-05-19T06:25:13;102845.66;;;21.67;18.19
45040;BME280;30778;53.574;7.770;2023-05-19T06:27:38;102830.81;;;20.81;19.32
45040;BME280;30778;53.574;7.770;2023-05-19T06:30:04;102833.47;;;20.11;20.17
45040;BME280;30778;53.574;7.770;2023-05-19T06:32:38;102842.50;;;20.26;21.33
45040;BME280;30778;53.574;7.770;2023-05-19T06:35:05;102841.69;;;20.06;20.54
45040;BME280;30778;53.574;7.770;2023-05-19T06:37:31;102846.88;;;19.34;22.60
45040;BME280;30778;53.574;7.770;2023-05-19T06:39:59;102848.09;;;20.37;20.89
45040;BME280;30778;53.574;7.770;2023-05-19T06:42:25;102842.56;;;20.59;20.95
45040;BME280;30778;53.574;7.770;2023-05-19T06:45:05;102838.53;;;21.03;20.45
45040;BME280;30778;53.574;7.770;2023-05-19T06:47:31;102836.50;;;21.40;20.80
45040;BME280;30778;53.574;7.770;2023-05-19T06:49:57;102839.56;;;22.27;19.41
45040;BME280;30778;53.574;7.770;2023-05-19T06:52:26;102851.81;;;21.84;20.04
45040;BME280;30778;53.574;7.770;2023-05-19T06:54:52;102852.97;;;22.26;20.36
45040;BME280;30778;53.574;7.770;2023-05-19T06:57:17;102851.66;;;21.55;19.95
45040;BME280;30778;53.574;7.770;2023-05-19T06:59:45;102845.56;;;22.31;19.28
45040;BME280;30778;53.574;7.770;2023-05-19T07:02:12;102850.59;;;22.21;19.78
45040;BME280;30778;53.574;7.770;2023-05-19T07:04:38;102853.16;;;22.23;19.06
45040;BME280;30778;53.574;7.770;2023-05-19T07:07:05;102851.13;;;21.64;19.12
45040;BME280;30778;53.574;7.770;2023-05-19T07:09:31;102852.22;;;22.08;18.99
45040;BME280;30778;53.574;7.770;2023-05-19T07:11:56;102853.66;;;22.74;18.58
45040;BME280;30778;53.574;7.770;2023-05-19T07:14:22;102841.63;;;23.53;18.48
45040;BME280;30778;53.574;7.770;2023-05-19T07:16:48;102855.28;;;23.34;18.69
45040;BME280;30778;53.574;7.770;2023-05-19T07:19:13;102864.47;;;23.86;17.47
45040;BME280;30778;53.574;7.770;2023-05-19T07:21:39;102859.22;;;24.37;17.70
45040;BME280;30778;53.574;7.770;2023-05-19T07:24:06;102861.72;;;23.58;16.52
45040;BME280;30778;53.574;7.770;2023-05-19T07:26:32;102857.28;;;23.45;17.17
45040;BME280;30778;53.574;7.770;2023-05-19T07:28:58;102849.38;;;23.00;16.38
45040;BME280;30778;53.574;7.770;2023-05-19T07:31:23;102855.56;;;22.11;17.74
45040;BME280;30778;53.574;7.770;2023-05-19T07:33:49;102855.59;;;21.80;18.72
45040;BME280;30778;53.574;7.770;2023-05-19T07:36:19;102843.50;;;22.95;17.62
45040;BME280;30778;53.574;7.770;2023-05-19T07:38:45;102850.44;;;22.38;17.82
45040;BME280;30778;53.574;7.770;2023-05-19T07:41:10;102850.13;;;22.73;18.18
45040;BME280;30778;53.574;7.770;2023-05-19T07:43:36;102848.34;;;23.03;16.65
45040;BME280;30778;53.574;7.770;2023-05-19T07:46:01;102848.72;;;22.82;17.78
45040;BME280;30778;53.574;7.770;2023-05-19T07:48:27;102850.25;;;22.72;18.48
45040;BME280;30778;53.574;7.770;2023-05-19T07:50:53;102847.75;;;23.40;17.47
45040;BME280;30778;53.574;7.770;2023-05-19T07:53:19;102846.25;;;24.71;16.74
45040;BME280;30778;53.574;7.770;2023-05-19T07:55:45;102840.97;;;24.43;17.26
45040;BME280;30778;53.574;7.770;2023-05-19T07:58:11;102844.72;;;25.18;16.46
45040;BME280;30778;53.574;7.770;2023-05-19T08:00:38;102841.84;;;24.44;15.56
45040;BME280;30778;53.574;7.770;2023-05-19T08:03:07;102843.31;;;23.68;15.37
45040;BME280;30778;53.574;7.770;2023-05-19T08:05:34;102839.19;;;23.35;16.58
45040;BME280;30778;53.574;7.770;2023-05-19T08:07:59;102844.91;;;23.00;18.53
45040;BME280;30778;53.574;7.770;2023-05-19T08:10:25;102850.78;;;23.49;17.57
45040;BME280;30778;53.574;7.770;2023-05-19T08:12:50;102847.19;;;23.21;17.38
45040;BME280;30778;53.574;7.770;2023-05-19T08:15:16;102841.66;;;24.07;16.58
45040;BME280;30778;53.574;7.770;2023-05-19T08:17:43;102844.16;;;23.41;17.15
45040;BME280;30778;53.574;7.770;2023-05-19T08:20:09;102841.09;;;23.75;17.26
45040;BME280;30778;53.574;7.770;2023-05-19T08:22:36;102835.13;;;24.51;17.50
45040;BME280;30778;53.574;7.770;2023-05-19T08:25:05;102835.81;;;24.28;17.15
45040;BME280;30778;53.574;7.770;2023-05-19T08:27:31;102825.72;;;24.58;16.83
45040;BME280;30778;53.574;7.770;2023-05-19T08:29:57;102835.22;;;24.10;16.56
45040;BME280;30778;53.574;7.770;2023-05-19T08:32:23;102832.88;;;23.36;17.92
45040;BME280;30778;53.574;7.770;2023-05-19T08:34:51;102835.34;;;24.08;18.31
45040;BME280;30778;53.574;7.770;2023-05-19T08:37:16;102833.56;;;24.21;17.45
45040;BME280;30778;53.574;7.770;2023-05-19T08:39:41;102825.81;;;23.50;18.03
45040;BME280;30778;53.574;7.770;2023-05-19T08:42:07;102828.53;;;23.35;17.62
45040;BME280;30778;53.574;7.770;2023-05-19T08:44:35;102831.00;;;22.95;17.28
45040;BME280;30778;53.574;7.770;2023-05-19T08:47:03;102825.22;;;23.03;19.07
45040;BME280;30778;53.574;7.770;2023-05-19T08:49:42;102825.84;;;23.21;18.76
45040;BME280;30778;53.574;7.770;2023-05-19T08:52:16;102812.53;;;23.90;19.13
45040;BME280;30778;53.574;7.770;2023-05-19T08:54:53;102811.72;;;24.02;18.74
45040;BME280;30778;53.574;7.770;2023-05-19T08:57:21;102815.34;;;23.88;19.19
45040;BME280;30778;53.574;7.770;2023-05-19T08:59:49;102802.78;;;23.20;19.39
45040;BME280;30778;53.574;7.770;2023-05-19T09:02:17;102813.06;;;23.26;19.90
45040;BME280;30778;53.574;7.770;2023-05-19T09:04:44;102814.81;;;22.84;19.24
45040;BME280;30778;53.574;7.770;2023-05-19T09:07:15;102809.09;;;23.05;21.16
45040;BME280;30778;53.574;7.770;2023-05-19T09:09:41;102812.31;;;23.38;19.60
45040;BME280;30778;53.574;7.770;2023-05-19T09:12:10;102807.75;;;23.12;19.82
45040;BME280;30778;53.574;7.770;2023-05-19T09:14:37;102803.59;;;22.04;20.29
45040;BME280;30778;53.574;7.770;2023-05-19T09:17:03;102806.53;;;21.69;22.16
45040;BME280;30778;53.574;7.770;2023-05-19T09:19:29;102813.91;;;21.48;22.38
45040;BME280;30778;53.574;7.770;2023-05-19T09:21:59;102806.44;;;21.55;21.20
45040;BME280;30778;53.574;7.770;2023-05-19T09:24:27;102806.97;;;20.79;22.59
45040;BME280;30778;53.574;7.770;2023-05-19T09:26:56;102794.84;;;19.50;24.71
45040;BME280;30778;53.574;7.770;2023-05-19T09:29:22;102807.47;;;18.86;24.59
45040;BME280;30778;53.574;7.770;2023-05-19T09:34:14;102804.75;;;18.67;25.61
45040;BME280;30778;53.574;7.770;2023-05-19T09:36:41;102798.78;;;18.23;26.95
45040;BME280;30778;53.574;7.770;2023-05-19T09:39:13;102803.03;;;18.47;26.33
45040;BME280;30778;53.574;7.770;2023-05-19T09:41:39;102793.41;;;18.65;26.76
45040;BME280;30778;53.574;7.770;2023-05-19T09:44:04;102778.09;;;18.93;26.35
45040;BME280;30778;53.574;7.770;2023-05-19T09:46:32;102785.25;;;19.09;25.67
45040;BME280;30778;53.574;7.770;2023-05-19T09:49:07;102791.13;;;18.97;26.03
45040;BME280;30778;53.574;7.770;2023-05-19T09:51:35;102792.19;;;19.12;25.55
45040;BME280;30778;53.574;7.770;2023-05-19T09:54:02;102798.66;;;18.86;27.24
45040;BME280;30778;53.574;7.770;2023-05-19T09:56:34;102783.09;;;18.99;27.68
45040;BME280;30778;53.574;7.770;2023-05-19T09:59:03;102789.53;;;19.12;25.91
45040;BME280;30778;53.574;7.770;2023-05-19T10:01:30;102784.81;;;19.19;25.51
45040;BME280;30778;53.574;7.770;2023-05-19T10:03:58;102785.63;;;19.02;26.04
45040;BME280;30778;53.574;7.770;2023-05-19T10:06:24;102789.69;;;19.47;26.00
45040;BME280;30778;53.574;7.770;2023-05-19T10:08:51;102777.41;;;19.08;25.92
45040;BME280;30778;53.574;7.770;2023-05-19T10:11:17;102779.25;;;19.25;25.37
45040;BME280;30778;53.574;7.770;2023-05-19T10:13:44;102778.66;;;19.56;27.29
45040;BME280;30778;53.574;7.770;2023-05-19T10:16:12;102774.84;;;19.98;24.82
45040;BME280;30778;53.574;7.770;2023-05-19T10:18:41;102768.31;;;20.23;24.48
45040;BME280;30778;53.574;7.770;2023-05-19T10:21:07;102770.63;;;20.11;24.74
45040;BME280;30778;53.574;7.770;2023-05-19T10:23:33;102757.88;;;19.47;25.79
45040;BME280;30778;53.574;7.770;2023-05-19T10:26:00;102758.47;;;19.35;25.44
45040;BME280;30778;53.574;7.770;2023-05-19T10:28:37;102754.44;;;19.64;25.46
45040;BME280;30778;53.574;7.770;2023-05-19T10:31:06;102749.84;;;19.85;24.58
45040;BME280;30778;53.574;7.770;2023-05-19T10:34:04;102755.78;;;19.90;24.95
45040;BME280;30778;53.574;7.770;2023-05-19T10:36:46;102758.81;;;19.46;25.94
45040;BME280;30778;53.574;7.770;2023-05-19T10:39:33;102745.97;;;19.37;26.50
45040;BME280;30778;53.574;7.770;2023-05-19T10:45:03;102741.63;;;19.36;25.20
45040;BME280;30778;53.574;7.770;2023-05-19T10:47:32;102745.44;;;18.92;26.41
45040;BME280;30778;53.574;7.770;2023-05-19T10:50:13;102750.88;;;18.89;29.20
45040;BME280;30778;53.574;7.770;2023-05-19T10:52:55;102745.84;;;19.21;26.01
45040;BME280;30778;53.574;7.770;2023-05-19T10:55:46;102745.53;;;18.70;27.54
45040;BME280;30778;53.574;7.770;2023-05-19T11:01:16;102748.28;;;19.44;27.22
45040;BME280;30778;53.574;7.770;2023-05-19T11:04:03;102744.53;;;19.67;28.01
45040;BME280;30778;53.574;7.770;2023-05-19T11:06:45;102747.16;;;19.31;27.47
45040;BME280;30778;53.574;7.770;2023-05-19T11:09:20;102754.13;;;19.51;26.44
45040;BME280;30778;53.574;7.770;2023-05-19T11:12:03;102752.34;;;19.51;25.83
45040;BME280;30778;53.574;7.770;2023-05-19T11:14:33;102746.41;;;19.27;27.56
45040;BME280;30778;53.574;7.770;2023-05-19T11:17:02;102752.16;;;19.18;27.94
45040;BME280;30778;53.574;7.770;2023-05-19T11:19:37;102751.59;;;19.30;26.96
45040;BME280;30778;53.574;7.770;2023-05-19T11:22:10;102748.22;;;19.82;26.72
45040;BME280;30778;53.574;7.770;2023-05-19T11:24:45;102754.69;;;19.94;25.99
45040;BME280;30778;53.574;7.770;2023-05-19T11:27:34;102750.47;;;19.90;25.99
45040;BME280;30778;53.574;7.770;2023-05-19T11:30:09;102745.75;;;19.60;25.13
45040;BME280;30778;53.574;7.770;2023-05-19T11:32:46;102745.03;;;19.93;26.16
45040;BME280;30778;53.574;7.770;2023-05-19T11:35:12;102749.91;;;19.47;25.63
45040;BME280;30778;53.574;7.770;2023-05-19T11:37:41;102738.28;;;19.68;24.74
45040;BME280;30778;53.574;7.770;2023-05-19T11:40:27;102734.41;;;20.28;26.07
45040;BME280;30778;53.574;7.770;2023-05-19T11:42:56;102740.31;;;20.50;25.10
45040;BME280;30778;53.574;7.770;2023-05-19T11:45:36;102735.41;;;20.76;25.34
45040;BME280;30778;53.574;7.770;2023-05-19T11:48:02;102740.09;;;20.03;24.53
45040;BME280;30778;53.574;7.770;2023-05-19T11:50:33;102736.53;;;20.04;25.67
45040;BME280;30778;53.574;7.770;2023-05-19T11:53:03;102737.66;;;19.81;25.35
45040;BME280;30778;53.574;7.770;2023-05-19T11:55:44;102731.75;;;19.93;24.79
45040;BME280;30778;53.574;7.770;2023-05-19T11:58:13;102729.28;;;20.25;24.94
45040;BME280;30778;53.574;7.770;2023-05-19T12:00:40;102733.06;;;20.37;25.62
45040;BME280;30778;53.574;7.770;2023-05-19T12:03:08;102730.03;;;20.44;24.64
45040;BME280;30778;53.574;7.770;2023-05-19T12:05:42;102732.63;;;20.11;26.16
45040;BME280;30778;53.574;7.770;2023-05-19T12:08:18;102727.69;;;20.71;24.92
45040;BME280;30778;53.574;7.770;2023-05-19T12:10:54;102721.75;;;20.16;25.72
45040;BME280;30778;53.574;7.770;2023-05-19T12:13:29;102733.06;;;20.87;24.99
45040;BME280;30778;53.574;7.770;2023-05-19T12:16:00;102732.97;;;20.89;24.04
45040;BME280;30778;53.574;7.770;2023-05-19T12:18:35;102734.41;;;19.93;24.37
45040;BME280;30778;53.574;7.770;2023-05-19T12:21:11;102722.59;;;19.99;25.52
45040;BME280;30778;53.574;7.770;2023-05-19T12:23:47;102734.34;;;20.63;24.58
45040;BME280;30778;53.574;7.770;2023-05-19T12:26:24;102728.34;;;20.75;24.93
45040;BME280;30778;53.574;7.770;2023-05-19T12:29:00;102728.50;;;20.56;24.97
45040;BME280;30778;53.574;7.770;2023-05-19T12:31:36;102718.78;;;20.39;24.66
45040;BME280;30778;53.574;7.770;2023-05-19T12:34:14;102719.06;;;19.63;26.22
45040;BME280;30778;53.574;7.770;2023-05-19T12:36:47;102721.59;;;19.47;25.99
45040;BME280;30778;53.574;7.770;2023-05-19T12:39:15;102724.69;;;19.75;26.93
45040;BME280;30778;53.574;7.770;2023-05-19T12:41:49;102726.59;;;20.07;26.25
45040;BME280;30778;53.574;7.770;2023-05-19T12:44:24;102724.56;;;20.12;24.96
45040;BME280;30778;53.574;7.770;2023-05-19T12:47:16;102720.13;;;20.30;24.68
45040;BME280;30778;53.574;7.770;2023-05-19T12:52:53;102718.81;;;20.22;24.98
45040;BME280;30778;53.574;7.770;2023-05-19T12:55:26;102715.91;;;19.91;25.74
45040;BME280;30778;53.574;7.770;2023-05-19T12:57:54;102715.78;;;20.45;25.28
45040;BME280;30778;53.574;7.770;2023-05-19T13:00:22;102713.59;;;20.53;24.42
45040;BME280;30778;53.574;7.770;2023-05-19T13:03:07;102709.81;;;20.07;25.64
45040;BME280;30778;53.574;7.770;2023-05-19T13:05:46;102703.47;;;20.44;25.07
45040;BME280;30778;53.574;7.770;2023-05-19T13:08:30;102715.66;;;19.96;25.47
45040;BME280;30778;53.574;7.770;2023-05-19T13:10:57;102708.09;;;19.52;26.41
45040;BME280;30778;53.574;7.770;2023-05-19T13:13:49;102700.22;;;19.69;26.01
45040;BME280;30778;53.574;7.770;2023-05-19T13:16:19;102703.72;;;19.87;26.00
45040;BME280;30778;53.574;7.770;2023-05-19T13:18:59;102700.38;;;19.66;25.31
45040;BME280;30778;53.574;7.770;2023-05-19T13:21:27;102683.56;;;18.54;26.82
45040;BME280;30778;53.574;7.770;2023-05-19T13:24:12;102689.88;;;18.91;27.77
45040;BME280;30778;53.574;7.770;2023-05-19T13:27:00;102696.78;;;19.12;26.89
45040;BME280;30778;53.574;7.770;2023-05-19T13:29:47;102696.72;;;19.33;26.20
45040;BME280;30778;53.574;7.770;2023-05-19T13:32:38;102701.00;;;18.78;25.97
45040;BME280;30778;53.574;7.770;2023-05-19T13:35:19;102697.28;;;18.82;25.84
45040;BME280;30778;53.574;7.770;2023-05-19T13:37:52;102701.09;;;18.96;25.84